createdAt,value
2019-03-08T00:00:41.969Z,8.53
2019-03-08T00:01:42.001Z,8.45
2019-03-08T00:02:41.949Z,8.42
2019-03-08T00:03:41.966Z,8.45
2019-03-08T00:04:41.954Z,8.45
2019-03-08T00:05:41.917Z,8.30
2019-03-08T00:06:41.903Z,8.22
2019-03-08T00:07:41.913Z,8.26
2019-03-08T00:08:41.883Z,8.26
2019-03-08T00:09:41.871Z,8.33
2019-03-08T00:10:41.860Z,8.35
2019-03-08T00:11:41.848Z,8.28
2019-03-08T00:12:41.853Z,8.28
2019-03-08T00:13:41.829Z,8.20
2019-03-08T00:14:41.812Z,8.21
2019-03-08T00:15:41.801Z,8.14
2019-03-08T00:16:41.792Z,8.28
2019-03-08T00:17:41.820Z,8.18
2019-03-08T00:18:41.768Z,8.21
2019-03-08T00:19:41.759Z,8.18
2019-03-08T00:20:41.745Z,8.22
2019-03-08T00:21:41.733Z,8.12
2019-03-08T00:22:41.725Z,7.99
2019-03-08T00:23:41.729Z,7.97
2019-03-08T00:24:41.698Z,7.78
2019-03-08T00:25:43.545Z,7.72
2019-03-08T00:26:41.677Z,7.66
2019-03-08T00:27:41.685Z,7.55
2019-03-08T00:28:41.652Z,7.32
2019-03-08T00:29:41.645Z,7.26
2019-03-08T00:30:41.635Z,7.17
2019-03-08T00:31:41.624Z,7.22
2019-03-08T00:32:41.646Z,7.20
2019-03-08T00:33:41.603Z,7.05
2019-03-08T00:34:41.615Z,6.98
2019-03-08T00:35:41.579Z,7.04
2019-03-08T00:36:41.585Z,7.08
2019-03-08T00:37:41.573Z,7.09
2019-03-08T00:38:41.543Z,6.99
2019-03-08T00:39:41.535Z,7.02
2019-03-08T00:40:41.521Z,7.07
2019-03-08T00:41:41.508Z,7.20
2019-03-08T00:42:41.520Z,7.08
2019-03-08T00:43:41.488Z,6.97
2019-03-08T00:44:41.474Z,7.07
2019-03-08T00:45:41.462Z,7.05
2019-03-08T00:46:41.450Z,7.08
2019-03-08T00:47:43.403Z,6.99
2019-03-08T00:48:41.427Z,7.01
2019-03-08T00:49:41.417Z,7.08
2019-03-08T00:50:41.404Z,7.08
2019-03-08T00:51:41.396Z,6.98
2019-03-08T00:52:41.405Z,7.05
2019-03-08T00:53:41.373Z,7.07
2019-03-08T00:54:41.358Z,7.17
2019-03-08T00:55:41.349Z,7.12
2019-03-08T00:56:41.336Z,7.07
2019-03-08T00:57:41.344Z,7.13
2019-03-08T00:58:41.315Z,7.20
2019-03-08T00:59:41.300Z,7.19
2019-03-08T01:00:41.291Z,7.27
2019-03-08T01:01:41.305Z,7.31
2019-03-08T01:02:41.338Z,7.31
2019-03-08T01:03:41.257Z,7.31
2019-03-08T01:04:41.246Z,7.37
2019-03-08T01:05:41.254Z,7.40
2019-03-08T01:06:41.222Z,7.35
2019-03-08T01:07:41.288Z,7.35
2019-03-08T01:08:41.198Z,7.34
2019-03-08T01:09:41.207Z,7.31
2019-03-08T01:10:41.196Z,7.42
2019-03-08T01:11:41.166Z,7.34
2019-03-08T01:12:41.166Z,7.32
2019-03-08T01:13:41.158Z,7.34
2019-03-08T01:14:41.132Z,7.38
2019-03-08T01:15:41.129Z,7.45
2019-03-08T01:16:41.109Z,7.38
2019-03-08T01:17:41.112Z,7.31
2019-03-08T01:18:41.100Z,7.40
2019-03-08T01:19:41.098Z,7.37
2019-03-08T01:20:41.061Z,7.40
2019-03-08T01:21:41.046Z,7.22
2019-03-08T01:22:41.037Z,7.32
2019-03-08T01:23:41.045Z,7.24
2019-03-08T01:24:41.013Z,7.31
2019-03-08T01:25:41.001Z,7.31
2019-03-08T01:26:40.989Z,7.34
2019-03-08T01:27:40.978Z,7.26
2019-03-08T01:28:40.985Z,7.27
2019-03-08T01:29:41.001Z,7.23
2019-03-08T01:30:40.949Z,7.20
2019-03-08T01:31:40.933Z,7.31
2019-03-08T01:32:40.923Z,7.35
2019-03-08T01:33:40.927Z,7.22
2019-03-08T01:34:40.901Z,7.29
2019-03-08T01:35:40.887Z,7.23
2019-03-08T01:36:40.878Z,7.16
2019-03-08T01:37:40.866Z,7.31
2019-03-08T01:38:40.874Z,7.23
2019-03-08T01:39:40.842Z,7.20
2019-03-08T01:40:40.833Z,7.09
2019-03-08T01:41:40.821Z,7.20
2019-03-08T01:42:40.808Z,7.19
2019-03-08T01:43:40.816Z,7.26
2019-03-08T01:44:40.787Z,7.17
2019-03-08T01:45:40.775Z,7.15
2019-03-08T01:46:40.763Z,7.17
2019-03-08T01:47:40.750Z,7.15
2019-03-08T01:48:40.782Z,7.22
2019-03-08T01:49:40.732Z,7.15
2019-03-08T01:50:40.717Z,7.09
2019-03-08T01:51:40.708Z,7.17
2019-03-08T01:52:40.699Z,7.09
2019-03-08T01:53:40.692Z,7.05
2019-03-08T01:54:40.693Z,7.01
2019-03-08T01:55:40.666Z,7.05
2019-03-08T01:56:40.649Z,7.02
2019-03-08T01:57:40.641Z,7.02
2019-03-08T01:58:40.627Z,7.07
2019-03-08T01:59:40.639Z,7.02
2019-03-08T02:00:40.905Z,7.01
2019-03-08T02:01:40.595Z,7.02
2019-03-08T02:02:40.584Z,6.89
2019-03-08T02:03:40.571Z,6.87
2019-03-08T02:04:40.558Z,6.95
2019-03-08T02:05:40.567Z,7.02
2019-03-08T02:06:40.538Z,6.95
2019-03-08T02:07:40.525Z,6.86
2019-03-08T02:08:40.514Z,6.89
2019-03-08T02:09:40.504Z,6.94
2019-03-08T02:10:40.509Z,6.95
2019-03-08T02:11:40.481Z,6.99
2019-03-08T02:12:42.043Z,7.05
2019-03-08T02:13:40.458Z,6.98
2019-03-08T02:14:40.445Z,6.97
2019-03-08T02:15:40.454Z,6.90
2019-03-08T02:16:40.424Z,6.98
2019-03-08T02:17:40.410Z,6.91
2019-03-08T02:18:40.400Z,7.07
2019-03-08T02:19:40.389Z,6.91
2019-03-08T02:20:40.399Z,7.04
2019-03-08T02:21:40.368Z,6.98
2019-03-08T02:22:40.359Z,6.91
2019-03-08T02:23:40.345Z,6.95
2019-03-08T02:24:40.332Z,6.99
2019-03-08T02:25:40.369Z,6.98
2019-03-08T02:26:40.313Z,6.94
2019-03-08T02:27:47.361Z,6.86
2019-03-08T02:28:40.290Z,6.94
2019-03-08T02:29:40.275Z,6.98
2019-03-08T02:30:40.266Z,6.90
2019-03-08T02:31:40.272Z,7.01
2019-03-08T02:32:40.248Z,7.12
2019-03-08T02:33:40.297Z,7.09
2019-03-08T02:34:40.221Z,7.17
2019-03-08T02:35:40.210Z,7.20
2019-03-08T02:36:40.212Z,7.16
2019-03-08T02:37:40.188Z,6.98
2019-03-08T02:38:40.175Z,7.12
2019-03-08T02:39:40.162Z,7.12
2019-03-08T02:40:40.150Z,7.05
2019-03-08T02:41:40.158Z,7.12
2019-03-08T02:42:40.130Z,7.02
2019-03-08T02:43:40.117Z,7.09
2019-03-08T02:44:40.104Z,7.02
2019-03-08T02:45:40.094Z,7.01
2019-03-08T02:46:40.123Z,6.95
2019-03-08T02:47:40.069Z,7.01
2019-03-08T02:48:40.058Z,7.02
2019-03-08T02:49:40.047Z,6.95
2019-03-08T02:50:40.038Z,6.98
2019-03-08T02:51:40.025Z,6.97
2019-03-08T02:52:40.030Z,6.95
2019-03-08T02:53:39.999Z,6.95
2019-03-08T02:54:39.989Z,7.04
2019-03-08T02:55:39.979Z,6.99
2019-03-08T02:56:39.968Z,6.97
2019-03-08T02:57:39.975Z,7.07
2019-03-08T02:58:39.943Z,7.05
2019-03-08T02:59:39.931Z,7.04
2019-03-08T03:00:39.918Z,6.94
2019-03-08T03:01:39.910Z,6.83
2019-03-08T03:02:39.923Z,6.94
2019-03-08T03:03:39.883Z,6.89
2019-03-08T03:04:39.876Z,6.91
2019-03-08T03:05:39.863Z,6.73
2019-03-08T03:06:39.850Z,6.83
2019-03-08T03:07:39.841Z,6.84
2019-03-08T03:08:39.845Z,6.63
2019-03-08T03:09:39.817Z,6.61
2019-03-08T03:10:39.805Z,6.50
2019-03-08T03:11:39.791Z,6.41
2019-03-08T03:12:39.782Z,6.47
2019-03-08T03:13:39.789Z,6.38
2019-03-08T03:14:39.758Z,6.38
2019-03-08T03:15:39.751Z,6.46
2019-03-08T03:16:39.734Z,6.41
2019-03-08T03:17:39.724Z,6.38
2019-03-08T03:18:39.730Z,6.46
2019-03-08T03:19:39.701Z,6.44
2019-03-08T03:20:39.688Z,6.51
2019-03-08T03:21:39.677Z,6.33
2019-03-08T03:22:39.664Z,6.36
2019-03-08T03:23:39.671Z,6.28
2019-03-08T03:24:39.642Z,6.36
2019-03-08T03:25:39.633Z,6.68
2019-03-08T03:26:39.620Z,6.62
2019-03-08T03:27:39.608Z,6.50
2019-03-08T03:28:39.621Z,6.43
2019-03-08T03:29:39.587Z,6.44
2019-03-08T03:30:39.578Z,6.29
2019-03-08T03:31:39.563Z,6.29
2019-03-08T03:32:39.552Z,6.16
2019-03-08T03:33:39.539Z,6.21
2019-03-08T03:34:39.576Z,6.14
2019-03-08T03:35:39.518Z,6.21
2019-03-08T03:36:39.506Z,6.25
2019-03-08T03:37:39.510Z,6.04
2019-03-08T03:38:39.482Z,6.18
2019-03-08T03:39:39.497Z,6.06
2019-03-08T03:40:39.462Z,6.07
2019-03-08T03:41:39.447Z,6.00
2019-03-08T03:42:39.439Z,6.10
2019-03-08T03:43:39.425Z,6.01
2019-03-08T03:44:39.411Z,5.88
2019-03-08T03:45:39.420Z,5.86
2019-03-08T03:46:39.390Z,6.06
2019-03-08T03:47:39.377Z,5.89
2019-03-08T03:48:39.367Z,6.03
2019-03-08T03:49:39.354Z,5.92
2019-03-08T03:50:39.361Z,5.98
2019-03-08T03:51:39.333Z,5.89
2019-03-08T03:52:39.323Z,6.14
2019-03-08T03:53:39.309Z,6.09
2019-03-08T03:54:39.296Z,6.13
2019-03-08T03:55:39.304Z,6.04
2019-03-08T03:56:39.273Z,6.09
2019-03-08T03:57:39.264Z,6.16
2019-03-08T03:58:39.249Z,6.10
2019-03-08T03:59:39.241Z,6.10
2019-03-08T04:00:39.247Z,6.07
2019-03-08T04:01:39.218Z,6.09
2019-03-08T04:02:39.206Z,6.11
2019-03-08T04:03:39.193Z,6.18
2019-03-08T04:04:39.182Z,6.21
2019-03-08T04:05:39.202Z,6.14
2019-03-08T04:06:39.157Z,6.19
2019-03-08T04:07:39.148Z,6.26
2019-03-08T04:08:39.136Z,6.22
2019-03-08T04:09:39.125Z,6.29
2019-03-08T04:10:39.137Z,6.30
2019-03-08T04:11:39.104Z,6.21
2019-03-08T04:12:39.094Z,6.22
2019-03-08T04:13:39.082Z,6.44
2019-03-08T04:14:39.067Z,6.46
2019-03-08T04:15:39.058Z,6.46
2019-03-08T04:16:39.065Z,6.46
2019-03-08T04:17:39.034Z,6.46
2019-03-08T04:18:39.022Z,6.44
2019-03-08T04:19:39.013Z,6.46
2019-03-08T04:20:39.001Z,6.43
2019-03-08T04:21:39.011Z,6.44
2019-03-08T04:22:38.978Z,6.41
2019-03-08T04:23:38.967Z,6.54
2019-03-08T04:24:38.963Z,6.46
2019-03-08T04:25:38.945Z,6.46
2019-03-08T04:26:38.932Z,6.40
2019-03-08T04:27:38.937Z,6.44
2019-03-08T04:28:38.906Z,6.51
2019-03-08T04:29:38.896Z,6.40
2019-03-08T04:30:38.885Z,6.40
2019-03-08T04:31:38.873Z,6.48
2019-03-08T04:32:38.885Z,6.41
2019-03-08T04:33:38.849Z,6.41
2019-03-08T04:34:38.840Z,6.56
2019-03-08T04:35:38.828Z,6.43
2019-03-08T04:36:38.820Z,6.35
2019-03-08T04:37:38.824Z,6.47
2019-03-08T04:38:38.796Z,6.44
2019-03-08T04:39:38.782Z,6.40
2019-03-08T04:40:38.773Z,6.43
2019-03-08T04:41:38.758Z,6.46
2019-03-08T04:42:38.769Z,6.47
2019-03-08T04:43:38.736Z,6.51
2019-03-08T04:44:38.725Z,6.59
2019-03-08T04:45:38.716Z,6.61
2019-03-08T04:46:38.701Z,6.71
2019-03-08T04:47:38.712Z,6.59
2019-03-08T04:48:38.685Z,6.56
2019-03-08T04:49:38.670Z,6.51
2019-03-08T04:50:38.659Z,6.50
2019-03-08T04:51:38.647Z,6.48
2019-03-08T04:52:38.653Z,6.44
2019-03-08T04:53:38.625Z,6.41
2019-03-08T04:54:38.612Z,6.51
2019-03-08T04:55:38.600Z,6.41
2019-03-08T04:56:38.589Z,6.54
2019-03-08T04:57:38.617Z,6.43
2019-03-08T04:58:38.571Z,6.44
2019-03-08T04:59:38.556Z,6.44
2019-03-08T05:00:38.545Z,6.54
2019-03-08T05:01:38.535Z,6.33
2019-03-08T05:02:38.522Z,6.36
2019-03-08T05:03:38.528Z,6.46
2019-03-08T05:04:38.502Z,6.35
2019-03-08T05:05:38.487Z,6.35
2019-03-08T05:06:38.476Z,6.36
2019-03-08T05:07:38.475Z,6.35
2019-03-08T05:08:38.473Z,6.33
2019-03-08T05:09:38.444Z,6.28
2019-03-08T05:10:38.432Z,6.43
2019-03-08T05:11:38.418Z,6.43
2019-03-08T05:12:38.408Z,6.38
2019-03-08T05:13:38.418Z,6.40
2019-03-08T05:14:38.385Z,6.46
2019-03-08T05:15:38.376Z,6.53
2019-03-08T05:16:38.363Z,6.44
2019-03-08T05:17:38.352Z,6.56
2019-03-08T05:18:38.390Z,6.50
2019-03-08T05:19:38.331Z,6.48
2019-03-08T05:20:38.319Z,6.48
2019-03-08T05:21:38.306Z,6.43
2019-03-08T05:22:38.296Z,6.50
2019-03-08T05:23:38.280Z,6.44
2019-03-08T05:24:38.291Z,6.41
2019-03-08T05:25:38.260Z,6.41
2019-03-08T05:26:38.247Z,6.56
2019-03-08T05:27:38.236Z,6.33
2019-03-08T05:28:38.225Z,6.46
2019-03-08T05:29:38.235Z,6.40
2019-03-08T05:30:38.200Z,6.41
2019-03-08T05:31:38.190Z,6.43
2019-03-08T05:32:38.178Z,6.38
2019-03-08T05:33:38.165Z,6.43
2019-03-08T05:34:38.176Z,6.40
2019-03-08T05:35:38.144Z,6.48
2019-03-08T05:36:38.131Z,6.54
2019-03-08T05:37:38.119Z,6.47
2019-03-08T05:38:38.111Z,6.33
2019-03-08T05:39:38.099Z,6.43
2019-03-08T05:40:38.102Z,6.47
2019-03-08T05:41:38.073Z,6.30
2019-03-08T05:42:38.062Z,6.41
2019-03-08T05:43:38.053Z,6.43
2019-03-08T05:44:38.039Z,6.43
2019-03-08T05:45:38.047Z,6.41
2019-03-08T05:46:38.015Z,6.43
2019-03-08T05:47:38.003Z,6.43
2019-03-08T05:48:37.995Z,6.44
2019-03-08T05:49:37.981Z,6.54
2019-03-08T05:50:37.988Z,6.61
2019-03-08T05:51:37.960Z,6.40
2019-03-08T05:52:37.948Z,6.47
2019-03-08T05:53:37.936Z,6.26
2019-03-08T05:54:37.937Z,6.47
2019-03-08T05:55:37.930Z,6.38
2019-03-08T05:56:37.901Z,6.36
2019-03-08T05:57:37.888Z,6.46
2019-03-08T05:58:37.895Z,6.40
2019-03-08T05:59:37.872Z,6.43
2019-03-08T06:00:37.874Z,6.36
2019-03-08T06:01:37.843Z,6.38
2019-03-08T06:02:37.831Z,6.41
2019-03-08T06:03:37.819Z,6.44
2019-03-08T06:04:37.807Z,6.50
2019-03-08T06:05:37.815Z,6.41
2019-03-08T06:06:37.786Z,6.47
2019-03-08T06:07:37.776Z,6.56
2019-03-08T06:08:37.762Z,6.40
2019-03-08T06:09:37.751Z,6.51
2019-03-08T06:10:37.757Z,6.43
2019-03-08T06:11:37.729Z,6.54
2019-03-08T06:12:37.716Z,6.48
2019-03-08T06:13:37.705Z,6.43
2019-03-08T06:14:37.695Z,6.43
2019-03-08T06:15:37.700Z,6.40
2019-03-08T06:16:37.670Z,6.46
2019-03-08T06:17:37.671Z,6.44
2019-03-08T06:18:37.647Z,6.38
2019-03-08T06:19:37.635Z,6.47
2019-03-08T06:20:37.646Z,6.43
2019-03-08T06:21:37.613Z,6.47
2019-03-08T06:22:37.602Z,6.43
2019-03-08T06:23:37.592Z,6.40
2019-03-08T06:24:37.582Z,6.36
2019-03-08T06:25:37.587Z,6.46
2019-03-08T06:26:37.556Z,6.48
2019-03-08T06:27:37.545Z,6.53
2019-03-08T06:28:37.538Z,6.46
2019-03-08T06:29:37.521Z,6.46
2019-03-08T06:30:37.528Z,6.47
2019-03-08T06:31:37.499Z,6.50
2019-03-08T06:32:37.487Z,6.47
2019-03-08T06:33:37.474Z,6.46
2019-03-08T06:34:37.467Z,6.56
2019-03-08T06:35:37.471Z,6.48
2019-03-08T06:36:37.446Z,6.71
2019-03-08T06:37:37.429Z,6.50
2019-03-08T06:38:37.422Z,6.54
2019-03-08T06:39:37.405Z,6.51
2019-03-08T06:40:37.415Z,6.56
2019-03-08T06:41:37.381Z,6.44
2019-03-08T06:42:37.371Z,6.58
2019-03-08T06:43:37.358Z,6.63
2019-03-08T06:44:37.348Z,6.66
2019-03-08T06:45:37.354Z,6.59
2019-03-08T06:46:37.327Z,6.65
2019-03-08T06:47:37.313Z,6.68
2019-03-08T06:48:37.302Z,6.72
2019-03-08T06:49:37.292Z,6.62
2019-03-08T06:50:37.302Z,6.76
2019-03-08T06:51:37.271Z,6.59
2019-03-08T06:52:37.257Z,6.66
2019-03-08T06:53:37.245Z,6.63
2019-03-08T06:54:37.236Z,6.56
2019-03-08T06:55:37.246Z,6.68
2019-03-08T06:56:37.212Z,6.63
2019-03-08T06:57:37.199Z,6.59
2019-03-08T06:58:37.191Z,6.63
2019-03-08T06:59:37.197Z,6.66
2019-03-08T07:00:37.229Z,6.68
2019-03-08T07:01:37.158Z,6.59
2019-03-08T07:02:37.146Z,6.63
2019-03-08T07:03:37.139Z,6.65
2019-03-08T07:04:37.121Z,6.77
2019-03-08T07:05:37.120Z,6.66
2019-03-08T07:06:37.117Z,6.65
2019-03-08T07:07:37.087Z,6.79
2019-03-08T07:08:37.080Z,6.66
2019-03-08T07:09:37.068Z,6.71
2019-03-08T07:10:37.054Z,6.86
2019-03-08T07:11:37.059Z,6.76
2019-03-08T07:12:37.031Z,6.77
2019-03-08T07:13:37.019Z,6.81
2019-03-08T07:14:37.009Z,6.76
2019-03-08T07:15:36.999Z,6.76
2019-03-08T07:16:37.005Z,6.68
2019-03-08T07:17:36.975Z,6.77
2019-03-08T07:18:36.963Z,6.76
2019-03-08T07:19:40.968Z,6.73
2019-03-08T07:20:37.938Z,6.86
2019-03-08T07:21:36.950Z,6.87
2019-03-08T07:22:36.921Z,6.73
2019-03-08T07:23:36.905Z,6.80
2019-03-08T07:24:36.894Z,6.80
2019-03-08T07:25:36.885Z,6.80
2019-03-08T07:26:36.893Z,6.90
2019-03-08T07:27:36.864Z,6.91
2019-03-08T07:28:36.857Z,6.72
2019-03-08T07:29:36.842Z,6.89
2019-03-08T07:30:36.827Z,6.84
2019-03-08T07:31:36.836Z,6.84
2019-03-08T07:32:36.804Z,6.81
2019-03-08T07:33:36.800Z,6.90
2019-03-08T07:34:36.784Z,6.91
2019-03-08T07:35:36.773Z,6.94
2019-03-08T07:36:36.801Z,6.87
2019-03-08T07:37:36.748Z,6.87
2019-03-08T07:38:36.737Z,6.98
2019-03-08T07:39:36.727Z,7.07
2019-03-08T07:40:36.717Z,6.91
2019-03-08T07:41:36.704Z,6.95
2019-03-08T07:42:36.713Z,6.98
2019-03-08T07:43:36.703Z,7.05
2019-03-08T07:44:36.669Z,7.07
2019-03-08T07:45:36.660Z,7.07
2019-03-08T07:46:36.647Z,7.15
2019-03-08T07:47:36.658Z,7.34
2019-03-08T07:48:36.625Z,7.08
2019-03-08T07:49:36.611Z,7.29
2019-03-08T07:50:36.604Z,7.16
2019-03-08T07:51:36.588Z,7.27
2019-03-08T07:52:36.597Z,7.23
2019-03-08T07:53:36.569Z,7.31
2019-03-08T07:54:36.554Z,7.26
2019-03-08T07:55:36.548Z,7.27
2019-03-08T07:56:36.533Z,7.23
2019-03-08T07:57:36.544Z,7.35
2019-03-08T07:58:36.510Z,7.31
2019-03-08T07:59:36.499Z,7.50
2019-03-08T08:00:36.487Z,7.71
2019-03-08T08:01:36.475Z,8.04
2019-03-08T08:02:36.482Z,8.15
2019-03-08T08:03:36.452Z,8.65
2019-03-08T08:04:36.442Z,8.93
2019-03-08T08:05:36.427Z,9.35
2019-03-08T08:06:36.418Z,9.31
2019-03-08T08:07:36.421Z,8.99
2019-03-08T08:08:36.395Z,8.91
2019-03-08T08:09:36.381Z,8.87
2019-03-08T08:10:36.372Z,9.68
2019-03-08T08:11:36.359Z,9.85
2019-03-08T08:12:36.370Z,9.94
2019-03-08T08:13:36.335Z,10.43
2019-03-08T08:14:39.564Z,10.14
2019-03-08T08:15:36.313Z,9.99
2019-03-08T08:16:36.302Z,9.71
2019-03-08T08:17:36.308Z,9.38
2019-03-08T08:18:36.277Z,9.31
2019-03-08T08:19:36.267Z,8.88
2019-03-08T08:20:36.257Z,8.75
2019-03-08T08:21:36.245Z,8.65
2019-03-08T08:22:36.273Z,8.54
2019-03-08T08:23:36.225Z,8.40
2019-03-08T08:24:36.211Z,8.26
2019-03-08T08:25:37.016Z,8.22
2019-03-08T08:26:36.192Z,8.36
2019-03-08T08:28:28.577Z,8.10
2019-03-08T08:29:35.067Z,8.40
2019-03-08T08:30:29.544Z,8.32
2019-03-08T08:31:28.528Z,8.42
2019-03-08T08:32:28.520Z,8.65
2019-03-08T08:33:28.522Z,8.60
2019-03-08T08:34:28.492Z,8.54
2019-03-08T08:35:28.486Z,8.40
2019-03-08T08:36:28.473Z,8.29
2019-03-08T08:37:28.458Z,8.21
2019-03-08T08:38:28.466Z,8.20
2019-03-08T08:39:28.449Z,8.03
2019-03-08T08:40:28.423Z,8.03
2019-03-08T08:41:28.411Z,7.96
2019-03-08T08:42:28.402Z,7.94
2019-03-08T08:43:28.405Z,8.08
2019-03-08T08:44:28.374Z,8.07
2019-03-08T08:45:28.363Z,8.11
2019-03-08T08:46:28.353Z,8.11
2019-03-08T08:47:28.341Z,8.18
2019-03-08T08:48:28.347Z,8.29
2019-03-08T08:49:28.321Z,8.50
2019-03-08T08:50:28.306Z,8.50
2019-03-08T08:51:28.292Z,8.65
2019-03-08T08:52:28.283Z,8.63
2019-03-08T08:53:28.288Z,8.76
2019-03-08T08:54:28.257Z,8.73
2019-03-08T08:55:28.247Z,8.84
2019-03-08T08:56:28.236Z,10.22
2019-03-08T08:57:28.227Z,10.01
2019-03-08T08:58:28.255Z,9.83
2019-03-08T08:59:28.202Z,9.64
2019-03-08T09:00:28.190Z,9.31
2019-03-08T09:01:28.181Z,9.34
2019-03-08T09:02:28.166Z,9.30
2019-03-08T09:03:28.155Z,9.43
2019-03-08T09:04:28.164Z,10.71
2019-03-08T09:05:28.134Z,12.44
2019-03-08T09:06:28.122Z,12.79
2019-03-08T09:07:28.111Z,13.40
2019-03-08T09:08:28.099Z,13.40
2019-03-08T09:09:28.112Z,12.29
2019-03-08T09:10:28.074Z,11.59
2019-03-08T09:11:28.064Z,11.06
2019-03-08T09:12:28.050Z,10.68
2019-03-08T09:13:28.043Z,10.36
2019-03-08T09:14:28.045Z,10.19
2019-03-08T09:15:28.016Z,10.15
2019-03-08T09:16:28.004Z,10.03
2019-03-08T09:17:27.994Z,9.86
2019-03-08T09:18:27.983Z,9.79
2019-03-08T09:19:27.990Z,9.81
2019-03-08T09:20:27.959Z,9.40
2019-03-08T09:21:27.949Z,9.52
2019-03-08T09:22:27.935Z,9.48
2019-03-08T09:23:27.923Z,9.31
2019-03-08T09:24:27.932Z,9.38
2019-03-08T09:25:27.901Z,9.20
2019-03-08T09:26:27.890Z,9.21
2019-03-08T09:27:27.885Z,9.12
2019-03-08T09:28:27.868Z,9.10
2019-03-08T09:29:27.892Z,9.30
2019-03-08T09:30:27.847Z,9.32
2019-03-08T09:31:27.833Z,9.39
2019-03-08T09:32:27.828Z,9.25
2019-03-08T09:33:27.812Z,9.13
2019-03-08T09:34:27.796Z,9.16
2019-03-08T09:35:27.806Z,9.10
2019-03-08T09:36:27.775Z,9.10
2019-03-08T09:37:27.764Z,8.91
2019-03-08T09:38:27.751Z,8.86
2019-03-08T09:39:27.744Z,8.84
2019-03-08T09:40:27.749Z,8.83
2019-03-08T09:41:27.717Z,8.86
2019-03-08T09:42:27.707Z,8.62
2019-03-08T09:43:27.697Z,8.88
2019-03-08T09:44:27.682Z,8.96
2019-03-08T09:45:27.690Z,9.58
2019-03-08T09:46:27.658Z,11.35
2019-03-08T09:47:27.647Z,12.23
2019-03-08T09:48:27.637Z,11.59
2019-03-08T09:49:27.623Z,11.06
2019-03-08T09:50:27.630Z,10.70
2019-03-08T09:51:27.601Z,10.39
2019-03-08T09:52:27.590Z,10.03
2019-03-08T09:53:27.578Z,9.71
2019-03-08T09:54:27.566Z,9.53
2019-03-08T09:55:27.573Z,9.66
2019-03-08T09:56:27.542Z,9.46
2019-03-08T09:57:27.530Z,9.45
2019-03-08T09:58:27.524Z,9.34
2019-03-08T09:59:27.650Z,9.16
2019-03-08T10:00:27.514Z,9.01
2019-03-08T10:01:27.486Z,9.05
2019-03-08T10:02:27.474Z,9.16
2019-03-08T10:03:27.464Z,9.02
2019-03-08T10:04:27.456Z,9.15
2019-03-08T10:05:27.473Z,9.02
2019-03-08T10:06:27.429Z,9.04
2019-03-08T10:07:27.415Z,8.94
2019-03-08T10:08:27.405Z,9.10
2019-03-08T10:09:27.391Z,10.03
2019-03-08T10:10:27.403Z,9.78
2019-03-08T10:11:27.367Z,9.67
2019-03-08T10:12:29.315Z,9.52
2019-03-08T10:13:27.345Z,9.58
2019-03-08T10:14:27.334Z,9.63
2019-03-08T10:15:27.329Z,9.81
2019-03-08T10:16:27.346Z,9.78
2019-03-08T10:17:27.299Z,9.64
2019-03-08T10:18:27.289Z,9.66
2019-03-08T10:19:27.279Z,9.52
2019-03-08T10:20:27.269Z,9.48
2019-03-08T10:21:27.274Z,9.63
2019-03-08T10:22:27.247Z,9.82
2019-03-08T10:23:27.230Z,9.81
2019-03-08T10:24:27.220Z,9.81
2019-03-08T10:25:27.209Z,9.58
2019-03-08T10:26:27.215Z,9.61
2019-03-08T10:27:27.187Z,9.75
2019-03-08T10:28:27.174Z,9.66
2019-03-08T10:29:27.162Z,9.53
2019-03-08T10:30:27.154Z,9.49
2019-03-08T10:31:27.161Z,9.31
2019-03-08T10:32:27.129Z,9.27
2019-03-08T10:33:27.117Z,9.34
2019-03-08T10:34:27.105Z,9.38
2019-03-08T10:35:27.096Z,9.46
2019-03-08T10:36:27.103Z,9.85
2019-03-08T10:37:27.073Z,10.80
2019-03-08T10:38:27.059Z,12.48
2019-03-08T10:39:27.047Z,13.70
2019-03-08T10:40:27.038Z,13.02
2019-03-08T10:41:27.041Z,12.16
2019-03-08T10:42:27.014Z,11.99
2019-03-08T10:43:27.001Z,11.65
2019-03-08T10:44:26.990Z,11.53
2019-03-08T10:45:26.978Z,11.20
2019-03-08T10:46:26.983Z,10.91
2019-03-08T10:47:26.952Z,10.76
2019-03-08T10:48:26.943Z,10.78
2019-03-08T10:49:26.932Z,10.58
2019-03-08T10:50:26.920Z,10.42
2019-03-08T10:51:26.928Z,10.47
2019-03-08T10:52:26.896Z,10.46
2019-03-08T10:53:26.886Z,10.56
2019-03-08T10:54:26.878Z,10.52
2019-03-08T10:55:26.859Z,10.34
2019-03-08T10:56:26.848Z,10.09
2019-03-08T10:57:26.860Z,9.94
2019-03-08T10:58:26.833Z,10.03
2019-03-08T10:59:26.818Z,10.09
2019-03-08T11:00:26.803Z,10.19
2019-03-08T11:01:26.791Z,10.60
2019-03-08T11:02:26.797Z,10.76
2019-03-08T11:03:26.768Z,10.84
2019-03-08T11:04:26.757Z,10.96
2019-03-08T11:05:26.748Z,10.95
2019-03-08T11:06:26.734Z,11.28
2019-03-08T11:07:26.739Z,11.67
2019-03-08T11:08:29.698Z,11.25
2019-03-08T11:09:26.697Z,10.92
2019-03-08T11:10:26.685Z,10.60
2019-03-08T11:11:26.672Z,10.43
2019-03-08T11:12:26.709Z,10.36
2019-03-08T11:13:26.653Z,10.26
2019-03-08T11:14:26.640Z,10.18
2019-03-08T11:15:26.634Z,10.24
2019-03-08T11:16:26.616Z,10.06
2019-03-08T11:17:26.603Z,9.85
2019-03-08T11:18:26.611Z,9.31
2019-03-08T11:19:27.658Z,8.96
2019-03-08T11:20:26.572Z,8.58
2019-03-08T11:21:26.559Z,8.26
2019-03-08T11:22:26.548Z,8.15
2019-03-08T11:23:26.556Z,8.11
2019-03-08T11:24:26.523Z,8.17
2019-03-08T11:25:34.675Z,8.32
2019-03-08T11:26:27.507Z,8.36
2019-03-08T11:27:26.490Z,8.50
2019-03-08T11:28:26.499Z,8.44
2019-03-08T11:29:26.468Z,8.51
2019-03-08T11:30:26.456Z,8.50
2019-03-08T11:31:26.445Z,8.55
2019-03-08T11:32:26.434Z,8.57
2019-03-08T11:33:26.439Z,8.55
2019-03-08T11:34:26.409Z,8.51
2019-03-08T11:35:26.399Z,8.40
2019-03-08T11:36:26.386Z,8.37
2019-03-08T11:37:27.829Z,8.42
2019-03-08T11:38:26.382Z,8.36
2019-03-08T11:39:26.354Z,8.14
2019-03-08T11:40:26.340Z,8.11
2019-03-08T11:41:26.329Z,7.74
2019-03-08T11:42:26.324Z,7.72
2019-03-08T11:43:26.325Z,7.60
2019-03-08T11:44:26.294Z,7.60
2019-03-08T11:45:26.384Z,7.47
2019-03-08T11:46:26.272Z,7.62
2019-03-08T11:47:26.259Z,7.56
2019-03-08T11:48:26.268Z,7.89
2019-03-08T11:49:26.235Z,7.78
2019-03-08T11:50:26.224Z,7.92
2019-03-08T11:51:26.213Z,7.97
2019-03-08T11:52:26.202Z,8.11
2019-03-08T11:53:26.237Z,8.18
2019-03-08T11:54:26.183Z,8.39
2019-03-08T11:55:26.168Z,8.53
2019-03-08T11:56:26.160Z,8.81
2019-03-08T11:57:26.144Z,8.97
2019-03-08T11:58:26.219Z,9.23
2019-03-08T11:59:26.139Z,9.43
2019-03-08T12:00:26.109Z,9.46
2019-03-08T12:01:26.096Z,10.78
2019-03-08T12:02:26.087Z,11.25
2019-03-08T12:03:26.075Z,12.42
2019-03-08T12:04:26.086Z,13.80
2019-03-08T12:05:26.053Z,13.51
2019-03-08T12:06:26.038Z,14.25
2019-03-08T12:07:26.028Z,14.56
2019-03-08T12:08:26.020Z,15.57
2019-03-08T12:09:26.030Z,16.04
2019-03-08T12:10:25.996Z,15.51
2019-03-08T12:11:25.983Z,15.21
2019-03-08T12:12:25.970Z,14.34
2019-03-08T12:13:25.959Z,13.95
2019-03-08T12:14:25.967Z,14.38
2019-03-08T12:15:25.960Z,15.36
2019-03-08T12:16:25.923Z,16.22
2019-03-08T12:17:25.913Z,16.95
2019-03-08T12:18:25.901Z,16.67
2019-03-08T12:19:25.911Z,16.63
2019-03-08T12:20:25.880Z,17.13
2019-03-08T12:21:25.866Z,17.23
2019-03-08T12:22:25.857Z,17.26
2019-03-08T12:23:25.843Z,17.14
2019-03-08T12:24:25.853Z,17.06
2019-03-08T12:25:25.823Z,17.32
2019-03-08T12:26:25.824Z,17.17
2019-03-08T12:27:25.801Z,15.59
2019-03-08T12:28:25.786Z,14.17
2019-03-08T12:29:25.800Z,13.41
2019-03-08T12:30:25.767Z,13.03
2019-03-08T12:31:25.756Z,12.56
2019-03-08T12:32:25.745Z,13.15
2019-03-08T12:33:25.732Z,12.64
2019-03-08T12:34:25.716Z,12.19
2019-03-08T12:35:25.724Z,11.82
2019-03-08T12:36:25.694Z,11.78
2019-03-08T12:37:25.682Z,12.62
2019-03-08T12:38:25.670Z,14.16
2019-03-08T12:39:25.660Z,15.01
2019-03-08T12:40:25.664Z,16.15
2019-03-08T12:41:25.638Z,16.48
2019-03-08T12:42:25.624Z,16.14
2019-03-08T12:43:25.612Z,16.86
2019-03-08T12:44:25.605Z,17.10
2019-03-08T12:45:25.608Z,17.36
2019-03-08T12:46:25.579Z,16.06
2019-03-08T12:47:25.567Z,15.27
2019-03-08T12:48:25.555Z,16.18
2019-03-08T12:49:25.544Z,16.49
2019-03-08T12:50:25.552Z,17.07
2019-03-08T12:51:25.519Z,17.18
2019-03-08T12:52:25.513Z,17.64
2019-03-08T12:53:25.501Z,17.94
2019-03-08T12:54:25.489Z,17.44
2019-03-08T12:55:25.500Z,17.38
2019-03-08T12:56:25.466Z,17.43
2019-03-08T12:57:25.451Z,17.85
2019-03-08T12:58:25.527Z,18.27
2019-03-08T12:59:25.430Z,18.61
2019-03-08T13:00:25.417Z,17.40
2019-03-08T13:01:25.422Z,16.12
2019-03-08T13:02:25.393Z,15.31
2019-03-08T13:03:25.382Z,15.05
2019-03-08T13:04:25.397Z,14.38
2019-03-08T13:05:25.360Z,13.71
2019-03-08T13:06:25.364Z,13.29
2019-03-08T13:07:25.335Z,12.82
2019-03-08T13:08:25.323Z,12.49
2019-03-08T13:09:25.312Z,12.56
2019-03-08T13:10:25.300Z,12.51
2019-03-08T13:11:32.954Z,12.42
2019-03-08T13:12:26.276Z,12.51
2019-03-08T13:13:25.267Z,12.41
2019-03-08T13:14:25.254Z,12.38